Latest Weather Observations for Strathalbyn

IDS60901

Issued at 6:31 pm CST Saturday 30 April 2016 (issued every 10 minutes, with the page automatically refreshed every 10 minutes)

About weather observations | Map of Adelaide area stations | Latest observations for Adelaide area | Other Formats
Station Details ID: 024580 Name: STRATHALBYN RACECOURSE Lat: -35.28 Lon: 138.89 Height: 58.0 m
Data from the previous 72 hours. | See also: Recent months at Strathalbyn
Date/Time
CST
Tmp

°C
App
Tmp
°C
Dew
Point
°C
Rel
Hum
%
Delta-T

°C
Wind Press
QNH
hPa
Press
MSL
hPa
Rain
since
9 am
mm
Dir
 
Spd
km/h
Gust
km/h
Spd
kts
Gust
kts
30/06:30pm 22.9 18.5 4.9 31 9.0 NNW 17 24 9 13 1005.2 - 0.0
30/06:00pm 22.3 18.5 3.9 30 9.0 N 13 17 7 9 1005.0 1004.9 0.0
30/05:30pm 23.3 19.1 3.8 28 9.5 N 15 24 8 13 1005.1 - 0.0
30/05:00pm 24.5 18.8 2.6 24 10.6 N 22 35 12 19 1005.4 - 0.0
30/04:30pm 25.0 18.7 1.8 22 11.1 NNW 24 35 13 19 1005.9 - 0.0
30/04:00pm 25.3 17.8 1.4 21 11.3 NNW 30 41 16 22 1005.9 - 0.0
30/03:31pm 25.5 18.0 0.9 20 11.6 NNW 30 48 16 26 1006.2 - 0.0
30/03:30pm 25.6 18.4 1.0 20 11.6 NNW 28 43 15 23 1006.3 - 0.0
30/03:00pm 25.6 18.1 1.0 20 11.6 NNW 30 50 16 27 1006.6 1006.5 0.0
30/02:30pm 26.1 18.7 2.1 21 11.6 NNW 30 52 16 28 1006.8 - 0.0
30/02:15pm 25.7 18.1 0.4 19 11.8 NNW 30 48 16 26 1007.0 - 0.0
30/02:00pm 26.0 18.1 1.3 20 11.8 NNW 32 46 17 25 1007.1 - 0.0
30/01:31pm 25.6 18.6 1.7 21 11.4 NNW 28 50 15 27 1007.8 - 0.0
30/01:30pm 25.8 19.1 1.2 20 11.7 NNW 26 44 14 24 1007.8 - 0.0
30/01:00pm 25.5 16.7 1.6 21 11.4 NNW 37 52 20 28 1008.5 - 0.0
30/12:46pm 25.1 18.4 3.7 25 10.6 NNW 28 46 15 25 1008.8 - 0.0
30/12:30pm 25.2 18.4 4.9 27 10.3 N 30 41 16 22 1009.0 - 0.0
30/12:00pm 25.0 18.6 3.0 24 10.7 NNW 26 43 14 23 1009.8 1009.7 0.0
30/11:30am 24.4 18.2 4.2 27 10.0 NNW 26 39 14 21 1010.5 - 0.0
30/11:17am 24.0 17.4 4.4 28 9.7 N 28 46 15 25 1010.8 - 0.0
30/11:00am 23.9 18.5 6.2 32 9.1 N 24 39 13 21 1011.1 - 0.0
30/10:30am 22.9 18.3 6.6 35 8.4 N 20 30 11 16 1011.7 - 0.0
30/10:00am 21.6 16.8 7.4 40 7.3 N 22 30 12 16 1012.0 - 0.0
30/09:30am 20.6 16.6 8.9 47 6.2 N 20 24 11 13 1012.4 - 0.0
30/09:00am 19.0 15.8 9.8 55 4.9 N 17 26 9 14 1012.5 1012.4 0.0
30/08:30am 17.3 14.4 10.9 66 3.4 N 17 20 9 11 1012.8 - 0.0
30/08:00am 14.9 12.4 10.9 77 2.1 N 15 19 8 10 1012.8 - 0.0
30/07:30am 12.3 9.4 9.7 84 1.3 N 15 19 8 10 1012.7 - 0.0
30/07:00am 10.9 7.8 8.7 86 1.1 N 15 17 8 9 1012.5 - 0.0
30/06:30am 10.7 7.5 8.5 86 1.1 N 15 17 8 9 1012.3 - 0.0
30/06:00am 11.0 8.2 8.6 85 1.2 N 13 13 7 7 1012.2 1012.1 0.0
30/05:30am 11.2 8.5 8.9 86 1.1 N 13 15 7 8 1011.9 - 0.0
30/05:00am 10.7 8.3 8.8 88 0.9 N 11 13 6 7 1011.8 - 0.0
30/04:30am 11.2 8.6 9.5 89 0.9 N 13 15 7 8 1011.6 - 0.0
30/04:00am 11.1 8.9 9.5 90 0.8 NNW 11 13 6 7 1011.5 - 0.0
30/03:30am 11.1 9.0 9.9 92 0.6 NNW 11 13 6 7 1011.4 - 0.0
30/03:00am 10.9 8.7 9.5 91 0.7 NNW 11 15 6 8 1011.5 1011.4 0.0
30/02:30am 11.3 9.6 9.7 90 0.8 NNW 9 11 5 6 1011.8 - 0.0
30/02:00am 11.6 9.6 10.0 90 0.8 NNW 11 13 6 7 1012.0 - 0.0
30/01:30am 12.1 10.1 10.2 88 1.0 NNW 11 15 6 8 1012.0 - 0.0
30/01:00am 12.8 10.9 10.5 86 1.2 NNW 11 15 6 8 1012.1 - 0.0
30/12:30am 13.7 11.9 11.0 84 1.4 NW 11 15 6 8 1012.3 - 0.0
30/12:00am 14.1 12.1 11.4 84 1.4 NNW 13 15 7 8 1012.2 1012.1 0.0
 
Date/Time
CST
Tmp

°C
App
Tmp
°C
Dew
Point
°C
Rel
Hum
%
Delta-T

°C
Wind Press
QNH
hPa
Press
MSL
hPa
Rain
since
9 am
mm
Dir
 
Spd
km/h
Gust
km/h
Spd
kts
Gust
kts
29/11:30pm 14.4 12.4 11.6 83 1.5 NW 13 17 7 9 1012.3 - 0.0
29/11:00pm 14.7 12.0 11.8 83 1.6 NW 17 20 9 11 1012.5 - 0.0
29/10:30pm 15.3 13.5 12.2 82 1.7 NW 13 17 7 9 1012.6 - 0.0
29/10:00pm 15.2 13.5 12.3 83 1.6 NNW 13 15 7 8 1012.6 - 0.0
29/09:30pm 15.3 13.1 12.2 82 1.7 NNW 15 17 8 9 1012.6 - 0.0
29/09:00pm 15.4 13.7 12.3 82 1.7 NNW 13 17 7 9 1012.6 1012.5 0.0
29/08:30pm 15.0 13.2 12.1 83 1.6 NNW 13 15 7 8 1012.4 - 0.0
29/08:00pm 15.7 14.0 12.5 81 1.8 NW 13 15 7 8 1012.2 - 0.0
29/07:30pm 15.4 13.7 12.3 82 1.7 NW 13 17 7 9 1012.2 - 0.0
29/07:00pm 15.7 14.0 12.3 80 1.9 NNW 13 15 7 8 1012.0 - 0.0
29/06:30pm 17.2 16.2 12.3 73 2.7 W 9 11 5 6 1011.7 - 0.0
29/06:00pm 18.3 17.4 12.5 69 3.2 WNW 9 11 5 6 1011.6 1011.5 0.0
29/05:30pm 19.5 18.6 12.5 64 3.9 WNW 9 13 5 7 1011.3 - 0.0
29/05:00pm 20.7 19.8 12.7 60 4.5 WNW 9 13 5 7 1011.4 - 0.0
29/04:30pm 21.3 19.6 12.4 57 5.0 WNW 13 19 7 10 1011.2 - 0.0
29/04:00pm 22.8 20.9 13.0 54 5.6 WNW 15 20 8 11 1011.0 - 0.0
29/03:30pm 22.6 19.8 12.5 53 5.8 WNW 19 30 10 16 1010.9 - 0.0
29/03:00pm 21.6 19.3 13.0 58 4.9 W 17 22 9 12 1010.6 1010.5 0.0
29/02:30pm 22.7 20.3 12.6 53 5.8 NW 17 22 9 12 1010.3 - 0.0
29/02:00pm 22.0 19.6 12.8 56 5.3 NNW 17 28 9 15 1010.5 - 0.0
29/01:30pm 21.3 21.2 13.2 60 4.6 E 6 17 3 9 1010.3 - 0.0
29/01:00pm 20.0 19.6 13.0 64 4.0 E 7 9 4 5 1010.6 - 0.0
29/12:30pm 19.5 18.9 13.4 68 3.5 ESE 9 13 5 7 1011.1 - 0.0
29/12:00pm 18.9 18.2 13.3 70 3.2 SSE 9 13 5 7 1011.5 1011.4 0.0
29/11:30am 18.5 17.5 13.4 72 2.9 S 11 13 6 7 1011.8 - 0.0
29/11:00am 19.2 19.3 13.8 71 3.1 WSW 6 9 3 5 1012.2 - 0.0
29/10:30am 18.6 18.8 14.1 75 2.6 WSW 6 7 3 4 1012.4 - 0.0
29/10:00am 17.9 18.1 14.2 79 2.1 WSW 6 7 3 4 1012.4 - 0.0
29/09:30am 17.8 18.0 14.3 80 2.0 WSW 6 7 3 4 1012.5 - 0.0
29/09:00am 17.3 17.7 14.8 85 1.4 W 6 9 3 5 1012.5 1012.4 1.4
29/08:30am 16.3 17.6 14.1 87 1.3 CALM 0 0 0 0 1012.5 - 1.4
29/08:00am 15.9 16.0 13.9 88 1.1 WSW 6 7 3 4 1012.4 - 1.4
29/07:30am 15.8 15.6 13.6 87 1.2 WSW 7 9 4 5 1012.5 - 1.4
29/07:00am 16.0 15.8 13.7 86 1.3 WSW 7 11 4 6 1012.1 - 1.4
29/06:30am 16.4 16.2 13.7 84 1.5 NW 7 9 4 5 1011.8 - 1.4
29/06:00am 16.6 16.4 13.7 83 1.6 NW 7 9 4 5 1011.5 1011.4 1.4
29/05:30am 17.3 17.9 13.2 77 2.3 NW 2 6 1 3 1011.8 - 1.2
29/05:00am 18.1 17.5 13.4 74 2.7 NW 9 17 5 9 1012.3 - 1.2
29/04:30am 18.5 16.2 12.9 70 3.2 NNW 17 26 9 14 1012.1 - 1.2
29/04:00am 18.3 16.7 14.0 76 2.5 NW 15 22 8 12 1012.2 - 1.2
29/03:30am 19.4 15.4 13.1 67 3.6 NW 26 39 14 21 1012.5 - 1.2
29/03:00am 22.2 15.6 8.7 42 7.2 NNW 33 52 18 28 1011.7 1011.6 1.2
29/02:53am 22.5 16.7 7.9 39 7.7 NNW 28 52 15 28 1011.5 - 1.2
29/02:30am 21.9 17.5 7.3 39 7.6 N 20 30 11 16 1011.5 - 1.2
29/02:00am 22.4 16.0 7.0 37 7.9 N 30 43 16 23 1011.2 - 1.2
29/01:56am 22.9 15.8 6.6 35 8.4 N 33 41 18 22 1011.5 - 1.2
29/01:30am 19.8 17.7 9.7 52 5.4 N 11 15 6 8 1011.5 - 1.2
29/01:00am 19.9 16.7 9.8 52 5.4 N 17 26 9 14 1011.4 - 1.2
29/12:30am 22.2 16.0 8.0 40 7.5 NNW 30 43 16 23 1012.1 - 1.0
29/12:18am 22.3 17.5 8.8 42 7.2 NNW 24 41 13 22 1012.2 - 1.0
29/12:00am 17.3 16.0 12.4 73 2.7 N 11 15 6 8 1011.4 1011.3 1.0
 
Date/Time
CST
Tmp

°C
App
Tmp
°C
Dew
Point
°C
Rel
Hum
%
Delta-T

°C
Wind Press
QNH
hPa
Press
MSL
hPa
Rain
since
9 am
mm
Dir
 
Spd
km/h
Gust
km/h
Spd
kts
Gust
kts
28/11:30pm 17.8 17.3 12.5 71 3.0 N 7 11 4 6 1011.0 - 1.0
28/11:00pm 17.8 16.6 12.7 72 2.9 N 11 13 6 7 1011.1 - 1.0
28/10:30pm 18.3 17.2 13.2 72 2.9 NE 11 13 6 7 1011.7 - 1.0
28/10:00pm 17.8 17.3 13.9 78 2.2 N 9 11 5 6 1012.5 - 1.0
28/09:30pm 18.5 16.9 13.8 74 2.7 NNE 15 19 8 10 1012.9 - 1.0
28/09:00pm 19.4 19.0 14.0 71 3.1 N 9 11 5 6 1013.6 1013.5 0.8
28/08:30pm 18.7 18.6 15.0 79 2.2 N 9 13 5 7 1012.7 - 0.8
28/08:00pm 19.5 19.2 14.5 73 2.9 N 9 11 5 6 1012.8 - 0.8
28/07:30pm 19.6 19.0 14.6 73 2.9 NE 11 11 6 6 1012.8 - 0.8
28/07:00pm 19.1 18.7 15.2 78 2.3 N 11 11 6 6 1013.5 - 0.8
28/06:30pm 20.6 20.2 14.0 66 3.8 N 9 15 5 8 1013.7 - 0.6
28/06:00pm 20.8 18.7 13.7 64 4.1 NNE 17 24 9 13 1013.0 1012.9 0.6
28/05:30pm 20.9 19.7 14.1 65 4.0 NE 13 17 7 9 1012.7 - 0.6
28/05:00pm 21.2 19.8 14.4 65 4.0 ENE 15 19 8 10 1012.9 - 0.6
28/04:30pm 21.4 19.5 14.1 63 4.3 NE 17 22 9 12 1013.2 - 0.6
28/04:00pm 21.7 19.2 14.1 62 4.4 NE 20 26 11 14 1013.2 - 0.6
28/03:30pm 21.8 18.4 13.7 60 4.7 ENE 24 30 13 16 1013.2 - 0.6
28/03:00pm 23.6 21.3 14.0 55 5.6 ENE 19 26 10 14 1013.2 1013.1 0.6
28/02:30pm 23.3 20.8 13.5 54 5.7 ENE 19 28 10 15 1013.5 - 0.6
28/02:00pm 23.1 20.2 13.0 53 5.8 ENE 20 28 11 15 1014.1 - 0.6
28/01:30pm 22.3 20.2 12.5 53 5.6 ENE 15 22 8 12 1014.6 - 0.6
28/01:00pm 21.6 19.1 12.2 55 5.3 ENE 17 24 9 13 1015.2 - 0.6
28/12:30pm 21.1 18.8 11.7 55 5.2 NE 15 19 8 10 1016.1 - 0.6
28/12:00pm 20.3 18.6 12.3 60 4.5 NNE 13 17 7 9 1016.7 1016.7 0.6
28/11:30am 19.3 17.1 12.1 63 4.0 NNE 15 20 8 11 1017.2 - 0.6
28/11:00am 18.5 16.8 12.3 67 3.5 NNE 13 17 7 9 1017.5 - 0.6
28/10:30am 17.7 16.0 12.6 72 2.8 N 13 17 7 9 1018.0 - 0.6
28/10:00am 16.9 16.3 13.4 80 2.0 SSW 9 11 5 6 1018.0 - 0.6
28/09:30am 16.1 16.5 13.6 85 1.4 SSW 4 7 2 4 1018.4 - 0.6
28/09:00am 16.4 15.9 12.8 79 2.0 SSW 7 11 4 6 1018.6 1018.6 0.2
28/08:30am 16.5 15.9 12.3 76 2.3 SSW 7 11 4 6 1018.5 - 0.0
28/08:00am 15.6 15.0 12.4 81 1.8 SSW 7 9 4 5 1017.8 - 0.0
28/07:30am 14.2 13.0 11.7 85 1.3 SSW 9 11 5 6 1017.6 - 0.0
28/07:00am 14.1 14.2 11.6 85 1.3 SSW 2 6 1 3 1017.0 - 0.0
28/06:30am 14.1 13.5 11.6 85 1.3 SSW 6 7 3 4 1016.6 - 0.0
28/06:00am 14.2 13.9 11.5 84 1.4 SSW 4 7 2 4 1016.6 1016.6 0.0
28/05:30am 14.4 14.2 11.9 85 1.4 SSW 4 7 2 4 1016.5 - 0.0
28/05:00am 13.8 12.9 11.5 86 1.2 SSW 7 7 4 4 1016.6 - 0.0
28/04:30am 13.3 12.3 11.0 86 1.2 SSW 7 11 4 6 1016.4 - 0.0
28/04:00am 13.9 12.9 11.1 83 1.5 SSW 7 9 4 5 1016.4 - 0.0
28/03:30am 14.9 13.8 11.9 82 1.6 SSW 9 11 5 6 1016.2 - 0.0
28/03:00am 14.4 13.2 11.6 83 1.5 SSW 9 13 5 7 1016.1 1016.1 0.0
28/02:30am 14.3 13.1 11.5 83 1.5 SSW 9 11 5 6 1016.1 - 0.0
28/02:00am 14.5 13.8 11.3 81 1.7 SSW 6 7 3 4 1015.7 - 0.0
28/01:30am 15.3 14.6 11.9 80 1.8 SSW 7 9 4 5 1015.4 - 0.0
28/01:00am 15.9 14.1 12.1 78 2.1 SSW 13 15 7 8 1015.3 - 0.0
28/12:30am 15.7 14.5 11.5 76 2.3 SSW 9 11 5 6 1015.0 - 0.0
28/12:00am 16.5 16.9 12.5 77 2.2 SSW 2 7 1 4 1014.8 1014.8 0.0
 
Date/Time
CST
Tmp

°C
App
Tmp
°C
Dew
Point
°C
Rel
Hum
%
Delta-T

°C
Wind Press
QNH
hPa
Press
MSL
hPa
Rain
since
9 am
mm
Dir
 
Spd
km/h
Gust
km/h
Spd
kts
Gust
kts
27/11:30pm 16.8 16.3 12.5 76 2.4 SSW 7 9 4 5 1014.4 - 0.0
27/11:00pm 17.1 15.8 12.4 74 2.6 SSW 11 13 6 7 1014.1 - 0.0
27/10:30pm 17.8 17.0 12.9 73 2.7 SSW 9 15 5 8 1014.1 - 0.0
27/10:00pm 17.9 16.7 12.8 72 2.9 SSW 11 13 6 7 1014.1 - 0.0
27/09:30pm 18.6 15.8 12.6 68 3.4 S 19 20 10 11 1013.9 - 0.0
27/09:00pm 22.3 19.0 9.5 44 6.9 WNW 17 20 9 11 1013.4 1013.3 0.0
27/08:30pm 22.6 19.8 8.7 41 7.4 NW 13 17 7 9 1013.0 - 0.0
27/08:00pm 19.6 17.9 11.1 58 4.7 N 11 13 6 7 1012.5 - 0.0
27/07:30pm 21.0 18.9 9.9 49 6.0 NNW 11 13 6 7 1012.4 - 0.0
27/07:00pm 21.3 18.3 10.5 50 5.9 NNW 17 24 9 13 1012.8 - 0.0
27/06:38pm 23.1 17.0 8.4 39 7.8 NW 30 41 16 22 1013.2 - 0.0

Latest Capital City Observations: Canberra | Sydney | Melbourne | Brisbane | Adelaide | Perth | Hobart | Darwin

Other Formats:

Comma delimited format used in spreadsheet applications
http://www.bom.gov.au/fwo/IDS60901/IDS60901.94814.axf

JavaScript Object Notation format (JSON) in row-major order
http://www.bom.gov.au/fwo/IDS60901/IDS60901.94814.json